sensor_id;sensor_type;location;lat;lon;timestamp;P1;durP1;ratioP1;P2;durP2;ratioP2
33696;SDS011;20031;43.416;23.232;2022-08-19T00:00:00;7.95;;;2.67;;
33696;SDS011;20031;43.416;23.232;2022-08-19T00:02:26;4.40;;;2.65;;
33696;SDS011;20031;43.416;23.232;2022-08-19T00:04:51;8.05;;;2.58;;
33696;SDS011;20031;43.416;23.232;2022-08-19T00:07:20;6.85;;;3.17;;
33696;SDS011;20031;43.416;23.232;2022-08-19T00:09:45;8.18;;;2.83;;
33696;SDS011;20031;43.416;23.232;2022-08-19T00:12:12;6.07;;;2.50;;
33696;SDS011;20031;43.416;23.232;2022-08-19T00:14:38;9.35;;;2.67;;
33696;SDS011;20031;43.416;23.232;2022-08-19T00:17:06;7.38;;;2.60;;
33696;SDS011;20031;43.416;23.232;2022-08-19T00:19:33;5.75;;;2.92;;
33696;SDS011;20031;43.416;23.232;2022-08-19T00:21:59;5.53;;;2.53;;
33696;SDS011;20031;43.416;23.232;2022-08-19T00:24:25;7.25;;;2.50;;
33696;SDS011;20031;43.416;23.232;2022-08-19T00:26:52;4.15;;;2.40;;
33696;SDS011;20031;43.416;23.232;2022-08-19T00:29:18;6.07;;;2.65;;
33696;SDS011;20031;43.416;23.232;2022-08-19T00:31:45;4.10;;;2.58;;
33696;SDS011;20031;43.416;23.232;2022-08-19T00:34:12;4.70;;;2.58;;
33696;SDS011;20031;43.416;23.232;2022-08-19T00:36:39;5.80;;;2.78;;
33696;SDS011;20031;43.416;23.232;2022-08-19T00:39:05;12.15;;;3.67;;
33696;SDS011;20031;43.416;23.232;2022-08-19T00:41:31;8.30;;;3.00;;
33696;SDS011;20031;43.416;23.232;2022-08-19T00:44:19;7.68;;;3.50;;
33696;SDS011;20031;43.416;23.232;2022-08-19T00:46:46;8.48;;;3.40;;
33696;SDS011;20031;43.416;23.232;2022-08-19T00:49:20;13.65;;;3.55;;
33696;SDS011;20031;43.416;23.232;2022-08-19T00:51:51;8.93;;;3.40;;
33696;SDS011;20031;43.416;23.232;2022-08-19T00:54:21;7.60;;;3.40;;
33696;SDS011;20031;43.416;23.232;2022-08-19T00:56:48;6.50;;;3.72;;
33696;SDS011;20031;43.416;23.232;2022-08-19T00:59:15;9.98;;;3.70;;
33696;SDS011;20031;43.416;23.232;2022-08-19T01:01:43;9.57;;;3.60;;
33696;SDS011;20031;43.416;23.232;2022-08-19T01:04:11;10.52;;;3.70;;
33696;SDS011;20031;43.416;23.232;2022-08-19T01:06:37;9.93;;;3.63;;
33696;SDS011;20031;43.416;23.232;2022-08-19T01:09:05;7.38;;;3.20;;
33696;SDS011;20031;43.416;23.232;2022-08-19T01:11:33;10.20;;;3.58;;
33696;SDS011;20031;43.416;23.232;2022-08-19T01:14:01;7.07;;;3.22;;
33696;SDS011;20031;43.416;23.232;2022-08-19T01:16:28;6.15;;;3.30;;
33696;SDS011;20031;43.416;23.232;2022-08-19T01:18:55;7.88;;;3.17;;
33696;SDS011;20031;43.416;23.232;2022-08-19T01:23:57;10.30;;;3.60;;
33696;SDS011;20031;43.416;23.232;2022-08-19T01:26:24;11.18;;;3.83;;
33696;SDS011;20031;43.416;23.232;2022-08-19T01:28:51;8.35;;;4.05;;
33696;SDS011;20031;43.416;23.232;2022-08-19T01:31:28;10.77;;;4.40;;
33696;SDS011;20031;43.416;23.232;2022-08-19T01:33:56;8.52;;;4.38;;
33696;SDS011;20031;43.416;23.232;2022-08-19T01:36:55;14.35;;;4.20;;
33696;SDS011;20031;43.416;23.232;2022-08-19T01:39:21;10.45;;;4.35;;
33696;SDS011;20031;43.416;23.232;2022-08-19T01:41:49;10.82;;;3.97;;
33696;SDS011;20031;43.416;23.232;2022-08-19T01:44:15;8.98;;;4.22;;
33696;SDS011;20031;43.416;23.232;2022-08-19T01:46:45;7.18;;;3.55;;
33696;SDS011;20031;43.416;23.232;2022-08-19T01:49:12;8.90;;;3.70;;
33696;SDS011;20031;43.416;23.232;2022-08-19T01:51:38;9.10;;;3.80;;
33696;SDS011;20031;43.416;23.232;2022-08-19T01:54:03;9.70;;;3.85;;
33696;SDS011;20031;43.416;23.232;2022-08-19T01:56:29;6.88;;;3.60;;
33696;SDS011;20031;43.416;23.232;2022-08-19T01:58:58;9.27;;;3.67;;
33696;SDS011;20031;43.416;23.232;2022-08-19T02:01:27;10.43;;;3.95;;
33696;SDS011;20031;43.416;23.232;2022-08-19T02:03:53;7.97;;;3.88;;
33696;SDS011;20031;43.416;23.232;2022-08-19T02:06:19;7.75;;;3.33;;
33696;SDS011;20031;43.416;23.232;2022-08-19T02:08:45;9.15;;;3.88;;
33696;SDS011;20031;43.416;23.232;2022-08-19T02:11:22;7.95;;;4.00;;
33696;SDS011;20031;43.416;23.232;2022-08-19T02:13:56;10.63;;;3.60;;
33696;SDS011;20031;43.416;23.232;2022-08-19T02:16:22;8.68;;;3.17;;
33696;SDS011;20031;43.416;23.232;2022-08-19T02:18:48;9.55;;;4.10;;
33696;SDS011;20031;43.416;23.232;2022-08-19T02:21:15;9.63;;;4.10;;
33696;SDS011;20031;43.416;23.232;2022-08-19T02:23:42;9.07;;;4.07;;
33696;SDS011;20031;43.416;23.232;2022-08-19T02:26:08;10.25;;;3.75;;
33696;SDS011;20031;43.416;23.232;2022-08-19T02:28:34;10.63;;;4.10;;
33696;SDS011;20031;43.416;23.232;2022-08-19T02:31:01;14.05;;;3.90;;
33696;SDS011;20031;43.416;23.232;2022-08-19T02:33:27;10.65;;;4.15;;
33696;SDS011;20031;43.416;23.232;2022-08-19T02:35:53;18.23;;;3.97;;
33696;SDS011;20031;43.416;23.232;2022-08-19T02:38:19;9.05;;;3.53;;
33696;SDS011;20031;43.416;23.232;2022-08-19T02:40:52;17.83;;;3.85;;
33696;SDS011;20031;43.416;23.232;2022-08-19T02:43:19;13.68;;;3.80;;
33696;SDS011;20031;43.416;23.232;2022-08-19T02:45:46;12.57;;;4.18;;
33696;SDS011;20031;43.416;23.232;2022-08-19T02:48:14;21.08;;;6.68;;
33696;SDS011;20031;43.416;23.232;2022-08-19T02:50:42;21.95;;;5.88;;
33696;SDS011;20031;43.416;23.232;2022-08-19T02:53:08;15.80;;;5.60;;
33696;SDS011;20031;43.416;23.232;2022-08-19T02:55:33;11.80;;;4.88;;
33696;SDS011;20031;43.416;23.232;2022-08-19T02:57:59;16.45;;;5.05;;
33696;SDS011;20031;43.416;23.232;2022-08-19T03:00:25;22.15;;;4.97;;
33696;SDS011;20031;43.416;23.232;2022-08-19T03:02:51;13.25;;;4.30;;
33696;SDS011;20031;43.416;23.232;2022-08-19T03:05:17;12.15;;;4.70;;
33696;SDS011;20031;43.416;23.232;2022-08-19T03:07:43;21.95;;;5.70;;
33696;SDS011;20031;43.416;23.232;2022-08-19T03:10:08;23.88;;;6.35;;
33696;SDS011;20031;43.416;23.232;2022-08-19T03:12:37;36.25;;;7.32;;
33696;SDS011;20031;43.416;23.232;2022-08-19T03:15:04;45.53;;;8.98;;
33696;SDS011;20031;43.416;23.232;2022-08-19T03:17:32;38.58;;;7.20;;
33696;SDS011;20031;43.416;23.232;2022-08-19T03:19:58;33.00;;;8.00;;
33696;SDS011;20031;43.416;23.232;2022-08-19T03:22:23;44.40;;;8.90;;
33696;SDS011;20031;43.416;23.232;2022-08-19T03:24:50;27.05;;;5.53;;
33696;SDS011;20031;43.416;23.232;2022-08-19T03:27:15;14.23;;;4.97;;
33696;SDS011;20031;43.416;23.232;2022-08-19T03:29:42;14.30;;;4.80;;
33696;SDS011;20031;43.416;23.232;2022-08-19T03:32:08;12.63;;;4.35;;
33696;SDS011;20031;43.416;23.232;2022-08-19T03:34:34;15.40;;;4.78;;
33696;SDS011;20031;43.416;23.232;2022-08-19T03:37:07;20.55;;;5.40;;
33696;SDS011;20031;43.416;23.232;2022-08-19T03:39:36;20.10;;;5.35;;
33696;SDS011;20031;43.416;23.232;2022-08-19T03:42:02;24.02;;;4.90;;
33696;SDS011;20031;43.416;23.232;2022-08-19T03:44:29;32.38;;;6.00;;
33696;SDS011;20031;43.416;23.232;2022-08-19T03:46:56;16.25;;;4.97;;
33696;SDS011;20031;43.416;23.232;2022-08-19T03:49:24;18.85;;;5.68;;
33696;SDS011;20031;43.416;23.232;2022-08-19T03:51:52;16.67;;;4.93;;
33696;SDS011;20031;43.416;23.232;2022-08-19T03:54:19;14.00;;;5.00;;
33696;SDS011;20031;43.416;23.232;2022-08-19T03:56:48;16.02;;;4.97;;
33696;SDS011;20031;43.416;23.232;2022-08-19T03:59:21;18.30;;;5.10;;
33696;SDS011;20031;43.416;23.232;2022-08-19T04:01:50;21.50;;;4.80;;
33696;SDS011;20031;43.416;23.232;2022-08-19T04:04:16;21.00;;;4.90;;
33696;SDS011;20031;43.416;23.232;2022-08-19T04:06:42;35.85;;;12.63;;
33696;SDS011;20031;43.416;23.232;2022-08-19T04:09:09;30.85;;;9.82;;
33696;SDS011;20031;43.416;23.232;2022-08-19T04:11:37;20.17;;;5.65;;
33696;SDS011;20031;43.416;23.232;2022-08-19T04:14:12;15.30;;;4.97;;
33696;SDS011;20031;43.416;23.232;2022-08-19T04:16:40;15.88;;;4.90;;
33696;SDS011;20031;43.416;23.232;2022-08-19T04:19:06;15.68;;;5.20;;
33696;SDS011;20031;43.416;23.232;2022-08-19T04:21:32;13.32;;;4.55;;
33696;SDS011;20031;43.416;23.232;2022-08-19T04:23:58;16.20;;;5.10;;
33696;SDS011;20031;43.416;23.232;2022-08-19T04:26:28;14.35;;;4.55;;
33696;SDS011;20031;43.416;23.232;2022-08-19T04:29:02;10.60;;;4.10;;
33696;SDS011;20031;43.416;23.232;2022-08-19T04:31:30;14.98;;;4.20;;
33696;SDS011;20031;43.416;23.232;2022-08-19T04:34:00;12.63;;;4.65;;
33696;SDS011;20031;43.416;23.232;2022-08-19T04:36:29;45.85;;;12.35;;
33696;SDS011;20031;43.416;23.232;2022-08-19T04:38:57;32.65;;;11.27;;
33696;SDS011;20031;43.416;23.232;2022-08-19T04:41:25;50.55;;;17.27;;
33696;SDS011;20031;43.416;23.232;2022-08-19T04:44:10;46.78;;;15.93;;
33696;SDS011;20031;43.416;23.232;2022-08-19T04:46:36;74.80;;;21.85;;
33696;SDS011;20031;43.416;23.232;2022-08-19T04:49:03;41.10;;;14.20;;
33696;SDS011;20031;43.416;23.232;2022-08-19T04:51:30;43.58;;;11.30;;
33696;SDS011;20031;43.416;23.232;2022-08-19T04:53:57;23.35;;;7.05;;
33696;SDS011;20031;43.416;23.232;2022-08-19T04:56:23;27.00;;;7.07;;
33696;SDS011;20031;43.416;23.232;2022-08-19T04:58:51;21.48;;;6.90;;
33696;SDS011;20031;43.416;23.232;2022-08-19T05:01:19;20.23;;;6.18;;
33696;SDS011;20031;43.416;23.232;2022-08-19T05:03:47;29.58;;;8.60;;
33696;SDS011;20031;43.416;23.232;2022-08-19T05:06:14;37.78;;;9.68;;
33696;SDS011;20031;43.416;23.232;2022-08-19T05:08:41;29.95;;;9.65;;
33696;SDS011;20031;43.416;23.232;2022-08-19T05:11:11;40.65;;;9.27;;
33696;SDS011;20031;43.416;23.232;2022-08-19T05:13:45;33.53;;;11.48;;
33696;SDS011;20031;43.416;23.232;2022-08-19T05:16:15;47.55;;;12.68;;
33696;SDS011;20031;43.416;23.232;2022-08-19T05:18:42;47.22;;;12.50;;
33696;SDS011;20031;43.416;23.232;2022-08-19T05:21:27;43.83;;;11.02;;
33696;SDS011;20031;43.416;23.232;2022-08-19T05:24:12;36.63;;;11.85;;
33696;SDS011;20031;43.416;23.232;2022-08-19T05:26:40;41.20;;;11.50;;
33696;SDS011;20031;43.416;23.232;2022-08-19T05:29:17;48.08;;;11.85;;
33696;SDS011;20031;43.416;23.232;2022-08-19T05:31:45;40.67;;;10.70;;
33696;SDS011;20031;43.416;23.232;2022-08-19T05:34:12;45.47;;;10.40;;
33696;SDS011;20031;43.416;23.232;2022-08-19T05:36:40;41.38;;;10.70;;
33696;SDS011;20031;43.416;23.232;2022-08-19T05:39:09;48.30;;;10.25;;
33696;SDS011;20031;43.416;23.232;2022-08-19T05:41:42;49.03;;;11.38;;
33696;SDS011;20031;43.416;23.232;2022-08-19T05:44:09;46.88;;;11.98;;
33696;SDS011;20031;43.416;23.232;2022-08-19T05:46:37;58.30;;;13.32;;
33696;SDS011;20031;43.416;23.232;2022-08-19T05:49:06;56.55;;;14.73;;
33696;SDS011;20031;43.416;23.232;2022-08-19T05:51:33;92.95;;;19.20;;
33696;SDS011;20031;43.416;23.232;2022-08-19T05:54:02;106.22;;;26.13;;
33696;SDS011;20031;43.416;23.232;2022-08-19T05:56:29;86.22;;;22.90;;
33696;SDS011;20031;43.416;23.232;2022-08-19T05:58:55;81.10;;;27.20;;
33696;SDS011;20031;43.416;23.232;2022-08-19T06:01:21;82.70;;;24.70;;
33696;SDS011;20031;43.416;23.232;2022-08-19T06:03:47;81.15;;;24.45;;
33696;SDS011;20031;43.416;23.232;2022-08-19T06:06:13;75.30;;;21.90;;
33696;SDS011;20031;43.416;23.232;2022-08-19T06:08:41;69.07;;;18.15;;
33696;SDS011;20031;43.416;23.232;2022-08-19T06:13:42;55.58;;;14.75;;
33696;SDS011;20031;43.416;23.232;2022-08-19T06:16:12;56.25;;;14.13;;
33696;SDS011;20031;43.416;23.232;2022-08-19T06:18:37;33.92;;;11.20;;
33696;SDS011;20031;43.416;23.232;2022-08-19T06:21:03;32.38;;;9.88;;
33696;SDS011;20031;43.416;23.232;2022-08-19T06:23:29;29.88;;;10.90;;
33696;SDS011;20031;43.416;23.232;2022-08-19T06:25:55;25.15;;;8.50;;
33696;SDS011;20031;43.416;23.232;2022-08-19T06:28:21;32.53;;;10.95;;
33696;SDS011;20031;43.416;23.232;2022-08-19T06:30:48;31.13;;;9.52;;
33696;SDS011;20031;43.416;23.232;2022-08-19T06:33:14;43.13;;;8.93;;
33696;SDS011;20031;43.416;23.232;2022-08-19T06:35:40;54.05;;;11.98;;
33696;SDS011;20031;43.416;23.232;2022-08-19T06:38:06;24.55;;;6.78;;
33696;SDS011;20031;43.416;23.232;2022-08-19T06:40:33;29.25;;;6.80;;
33696;SDS011;20031;43.416;23.232;2022-08-19T06:42:58;20.25;;;6.18;;
33696;SDS011;20031;43.416;23.232;2022-08-19T06:45:25;17.65;;;5.97;;
33696;SDS011;20031;43.416;23.232;2022-08-19T06:47:51;20.40;;;5.82;;
33696;SDS011;20031;43.416;23.232;2022-08-19T06:50:20;20.00;;;5.63;;
33696;SDS011;20031;43.416;23.232;2022-08-19T06:52:49;15.10;;;5.38;;
33696;SDS011;20031;43.416;23.232;2022-08-19T06:55:15;20.48;;;6.22;;
33696;SDS011;20031;43.416;23.232;2022-08-19T06:57:41;21.33;;;7.15;;
33696;SDS011;20031;43.416;23.232;2022-08-19T07:00:08;31.73;;;8.60;;
33696;SDS011;20031;43.416;23.232;2022-08-19T07:02:41;39.45;;;12.20;;
33696;SDS011;20031;43.416;23.232;2022-08-19T07:05:07;40.75;;;10.90;;
33696;SDS011;20031;43.416;23.232;2022-08-19T07:07:33;15.65;;;5.72;;
33696;SDS011;20031;43.416;23.232;2022-08-19T07:09:59;29.00;;;11.18;;
33696;SDS011;20031;43.416;23.232;2022-08-19T07:12:25;21.25;;;9.43;;
33696;SDS011;20031;43.416;23.232;2022-08-19T07:14:52;25.58;;;5.20;;
33696;SDS011;20031;43.416;23.232;2022-08-19T07:17:18;18.08;;;8.40;;
33696;SDS011;20031;43.416;23.232;2022-08-19T07:19:45;17.50;;;6.85;;
33696;SDS011;20031;43.416;23.232;2022-08-19T07:22:10;23.67;;;6.82;;
33696;SDS011;20031;43.416;23.232;2022-08-19T07:24:36;13.75;;;5.30;;
33696;SDS011;20031;43.416;23.232;2022-08-19T07:27:03;11.68;;;5.10;;
33696;SDS011;20031;43.416;23.232;2022-08-19T07:29:30;22.10;;;8.07;;
33696;SDS011;20031;43.416;23.232;2022-08-19T07:31:58;25.88;;;8.35;;
33696;SDS011;20031;43.416;23.232;2022-08-19T07:34:25;22.98;;;8.38;;
33696;SDS011;20031;43.416;23.232;2022-08-19T07:36:51;29.77;;;6.30;;
33696;SDS011;20031;43.416;23.232;2022-08-19T07:39:19;28.02;;;6.60;;
33696;SDS011;20031;43.416;23.232;2022-08-19T07:41:48;11.60;;;4.75;;
33696;SDS011;20031;43.416;23.232;2022-08-19T07:44:15;23.80;;;5.82;;
33696;SDS011;20031;43.416;23.232;2022-08-19T07:46:43;11.70;;;4.97;;
33696;SDS011;20031;43.416;23.232;2022-08-19T07:49:12;28.35;;;5.25;;
33696;SDS011;20031;43.416;23.232;2022-08-19T07:51:51;18.08;;;4.97;;
33696;SDS011;20031;43.416;23.232;2022-08-19T07:54:20;16.75;;;5.05;;
33696;SDS011;20031;43.416;23.232;2022-08-19T07:56:46;13.85;;;4.90;;
33696;SDS011;20031;43.416;23.232;2022-08-19T07:59:12;13.55;;;4.78;;
33696;SDS011;20031;43.416;23.232;2022-08-19T08:01:38;15.65;;;5.40;;
33696;SDS011;20031;43.416;23.232;2022-08-19T08:04:05;18.88;;;6.53;;
33696;SDS011;20031;43.416;23.232;2022-08-19T08:06:50;24.60;;;8.33;;
33696;SDS011;20031;43.416;23.232;2022-08-19T08:09:36;15.10;;;5.10;;
33696;SDS011;20031;43.416;23.232;2022-08-19T08:12:08;14.05;;;4.78;;
33696;SDS011;20031;43.416;23.232;2022-08-19T08:14:42;10.30;;;4.85;;
33696;SDS011;20031;43.416;23.232;2022-08-19T08:17:11;11.13;;;4.97;;
33696;SDS011;20031;43.416;23.232;2022-08-19T08:19:37;13.77;;;4.53;;
33696;SDS011;20031;43.416;23.232;2022-08-19T08:22:06;17.50;;;4.88;;
33696;SDS011;20031;43.416;23.232;2022-08-19T08:24:33;12.65;;;4.78;;
33696;SDS011;20031;43.416;23.232;2022-08-19T08:26:59;19.23;;;5.13;;
33696;SDS011;20031;43.416;23.232;2022-08-19T08:29:26;16.75;;;5.22;;
33696;SDS011;20031;43.416;23.232;2022-08-19T08:31:53;11.38;;;5.15;;
33696;SDS011;20031;43.416;23.232;2022-08-19T08:34:19;19.25;;;5.22;;
33696;SDS011;20031;43.416;23.232;2022-08-19T08:36:45;10.80;;;4.70;;
33696;SDS011;20031;43.416;23.232;2022-08-19T08:39:15;19.05;;;4.95;;
33696;SDS011;20031;43.416;23.232;2022-08-19T08:47:02;16.95;;;4.72;;
33696;SDS011;20031;43.416;23.232;2022-08-19T08:52:34;14.25;;;5.15;;
33696;SDS011;20031;43.416;23.232;2022-08-19T08:55:11;13.15;;;4.70;;
33696;SDS011;20031;43.416;23.232;2022-08-19T09:00:15;26.95;;;5.20;;
33696;SDS011;20031;43.416;23.232;2022-08-19T09:02:46;17.40;;;4.30;;
33696;SDS011;20031;43.416;23.232;2022-08-19T09:05:12;13.23;;;4.80;;
33696;SDS011;20031;43.416;23.232;2022-08-19T09:07:58;20.23;;;5.05;;
33696;SDS011;20031;43.416;23.232;2022-08-19T09:10:52;14.77;;;5.03;;
33696;SDS011;20031;43.416;23.232;2022-08-19T09:16:32;13.48;;;4.93;;
33696;SDS011;20031;43.416;23.232;2022-08-19T09:18:56;14.48;;;5.20;;
33696;SDS011;20031;43.416;23.232;2022-08-19T09:21:25;13.55;;;4.68;;
33696;SDS011;20031;43.416;23.232;2022-08-19T09:23:52;8.52;;;4.43;;
33696;SDS011;20031;43.416;23.232;2022-08-19T09:26:19;13.70;;;4.82;;
33696;SDS011;20031;43.416;23.232;2022-08-19T09:28:47;11.63;;;4.78;;
33696;SDS011;20031;43.416;23.232;2022-08-19T09:31:14;11.93;;;4.25;;
33696;SDS011;20031;43.416;23.232;2022-08-19T09:33:42;12.88;;;4.32;;
33696;SDS011;20031;43.416;23.232;2022-08-19T09:36:11;9.52;;;4.35;;
33696;SDS011;20031;43.416;23.232;2022-08-19T09:38:38;13.52;;;4.35;;
33696;SDS011;20031;43.416;23.232;2022-08-19T09:41:13;17.17;;;5.00;;
33696;SDS011;20031;43.416;23.232;2022-08-19T09:43:41;9.68;;;4.13;;
33696;SDS011;20031;43.416;23.232;2022-08-19T09:46:10;14.88;;;4.72;;
33696;SDS011;20031;43.416;23.232;2022-08-19T09:48:37;14.07;;;4.68;;
33696;SDS011;20031;43.416;23.232;2022-08-19T09:51:08;10.15;;;4.70;;
33696;SDS011;20031;43.416;23.232;2022-08-19T09:53:35;29.77;;;6.07;;
33696;SDS011;20031;43.416;23.232;2022-08-19T09:56:03;15.80;;;5.53;;
33696;SDS011;20031;43.416;23.232;2022-08-19T09:58:29;14.43;;;5.07;;
33696;SDS011;20031;43.416;23.232;2022-08-19T10:00:57;11.25;;;4.70;;
33696;SDS011;20031;43.416;23.232;2022-08-19T10:03:23;10.90;;;4.45;;
33696;SDS011;20031;43.416;23.232;2022-08-19T10:05:50;13.88;;;4.70;;
33696;SDS011;20031;43.416;23.232;2022-08-19T10:08:37;13.18;;;4.40;;
33696;SDS011;20031;43.416;23.232;2022-08-19T10:11:02;16.13;;;4.68;;
33696;SDS011;20031;43.416;23.232;2022-08-19T10:13:29;14.55;;;4.32;;
33696;SDS011;20031;43.416;23.232;2022-08-19T10:16:02;17.63;;;4.72;;
33696;SDS011;20031;43.416;23.232;2022-08-19T10:18:30;14.30;;;4.70;;
33696;SDS011;20031;43.416;23.232;2022-08-19T10:21:12;7.07;;;4.00;;
33696;SDS011;20031;43.416;23.232;2022-08-19T10:23:40;6.22;;;3.88;;
33696;SDS011;20031;43.416;23.232;2022-08-19T10:26:11;10.98;;;4.43;;
33696;SDS011;20031;43.416;23.232;2022-08-19T10:28:39;18.27;;;5.00;;
33696;SDS011;20031;43.416;23.232;2022-08-19T10:31:09;10.65;;;4.65;;
33696;SDS011;20031;43.416;23.232;2022-08-19T10:33:37;11.10;;;3.95;;
33696;SDS011;20031;43.416;23.232;2022-08-19T10:36:05;14.77;;;4.20;;
33696;SDS011;20031;43.416;23.232;2022-08-19T10:38:34;22.23;;;4.78;;
33696;SDS011;20031;43.416;23.232;2022-08-19T10:41:12;17.50;;;4.88;;
33696;SDS011;20031;43.416;23.232;2022-08-19T10:43:39;12.55;;;6.07;;
33696;SDS011;20031;43.416;23.232;2022-08-19T10:46:06;19.58;;;4.20;;
33696;SDS011;20031;43.416;23.232;2022-08-19T10:48:34;9.73;;;3.65;;
33696;SDS011;20031;43.416;23.232;2022-08-19T10:51:00;11.15;;;3.70;;
33696;SDS011;20031;43.416;23.232;2022-08-19T10:53:45;14.10;;;3.83;;
33696;SDS011;20031;43.416;23.232;2022-08-19T10:56:10;9.23;;;3.50;;
33696;SDS011;20031;43.416;23.232;2022-08-19T10:58:54;6.82;;;3.05;;
33696;SDS011;20031;43.416;23.232;2022-08-19T11:01:21;9.93;;;3.72;;
33696;SDS011;20031;43.416;23.232;2022-08-19T11:03:47;11.45;;;3.70;;
33696;SDS011;20031;43.416;23.232;2022-08-19T11:06:12;9.93;;;3.60;;
33696;SDS011;20031;43.416;23.232;2022-08-19T11:08:38;11.00;;;3.60;;
33696;SDS011;20031;43.416;23.232;2022-08-19T11:11:03;16.45;;;3.97;;
33696;SDS011;20031;43.416;23.232;2022-08-19T11:13:32;11.98;;;4.45;;
33696;SDS011;20031;43.416;23.232;2022-08-19T11:16:09;15.40;;;4.55;;
33696;SDS011;20031;43.416;23.232;2022-08-19T11:18:39;16.00;;;4.10;;
33696;SDS011;20031;43.416;23.232;2022-08-19T11:21:17;8.65;;;3.80;;
33696;SDS011;20031;43.416;23.232;2022-08-19T11:23:48;10.93;;;3.85;;
33696;SDS011;20031;43.416;23.232;2022-08-19T11:26:16;20.92;;;4.03;;
33696;SDS011;20031;43.416;23.232;2022-08-19T11:28:42;5.60;;;3.17;;
33696;SDS011;20031;43.416;23.232;2022-08-19T11:31:18;8.25;;;3.47;;
33696;SDS011;20031;43.416;23.232;2022-08-19T11:33:45;9.93;;;3.00;;
33696;SDS011;20031;43.416;23.232;2022-08-19T11:36:12;12.45;;;3.60;;
33696;SDS011;20031;43.416;23.232;2022-08-19T11:38:38;12.50;;;3.28;;
33696;SDS011;20031;43.416;23.232;2022-08-19T11:41:05;4.40;;;2.80;;
33696;SDS011;20031;43.416;23.232;2022-08-19T11:43:35;8.50;;;3.03;;
33696;SDS011;20031;43.416;23.232;2022-08-19T11:46:08;12.07;;;3.72;;
33696;SDS011;20031;43.416;23.232;2022-08-19T11:48:37;10.68;;;3.67;;
33696;SDS011;20031;43.416;23.232;2022-08-19T11:51:03;6.28;;;2.70;;
33696;SDS011;20031;43.416;23.232;2022-08-19T11:53:33;16.25;;;3.28;;
33696;SDS011;20031;43.416;23.232;2022-08-19T11:55:59;6.60;;;3.00;;
33696;SDS011;20031;43.416;23.232;2022-08-19T11:58:25;11.90;;;3.10;;
33696;SDS011;20031;43.416;23.232;2022-08-19T12:00:51;9.50;;;3.25;;
33696;SDS011;20031;43.416;23.232;2022-08-19T12:03:17;15.85;;;3.47;;
33696;SDS011;20031;43.416;23.232;2022-08-19T12:05:44;15.75;;;3.67;;
33696;SDS011;20031;43.416;23.232;2022-08-19T12:08:10;9.80;;;3.20;;
33696;SDS011;20031;43.416;23.232;2022-08-19T12:10:37;8.00;;;3.20;;
33696;SDS011;20031;43.416;23.232;2022-08-19T12:13:03;9.63;;;3.33;;
33696;SDS011;20031;43.416;23.232;2022-08-19T12:15:29;11.65;;;4.47;;
33696;SDS011;20031;43.416;23.232;2022-08-19T12:17:55;13.02;;;3.17;;
33696;SDS011;20031;43.416;23.232;2022-08-19T12:20:23;11.77;;;2.78;;
33696;SDS011;20031;43.416;23.232;2022-08-19T12:22:52;13.55;;;3.10;;
33696;SDS011;20031;43.416;23.232;2022-08-19T12:25:17;14.82;;;3.15;;
33696;SDS011;20031;43.416;23.232;2022-08-19T12:27:43;13.65;;;3.00;;
33696;SDS011;20031;43.416;23.232;2022-08-19T12:30:09;8.68;;;2.65;;
33696;SDS011;20031;43.416;23.232;2022-08-19T12:32:36;15.65;;;3.00;;
33696;SDS011;20031;43.416;23.232;2022-08-19T12:35:03;12.18;;;2.72;;
33696;SDS011;20031;43.416;23.232;2022-08-19T12:37:29;6.68;;;2.70;;
33696;SDS011;20031;43.416;23.232;2022-08-19T12:39:56;7.65;;;2.45;;
33696;SDS011;20031;43.416;23.232;2022-08-19T12:42:21;11.20;;;2.60;;
33696;SDS011;20031;43.416;23.232;2022-08-19T12:44:47;9.68;;;2.70;;
33696;SDS011;20031;43.416;23.232;2022-08-19T12:47:13;9.02;;;2.95;;
33696;SDS011;20031;43.416;23.232;2022-08-19T12:49:39;9.18;;;2.88;;
33696;SDS011;20031;43.416;23.232;2022-08-19T12:52:06;22.23;;;4.82;;
33696;SDS011;20031;43.416;23.232;2022-08-19T12:54:33;9.20;;;3.28;;
33696;SDS011;20031;43.416;23.232;2022-08-19T12:57:07;15.73;;;3.47;;
33696;SDS011;20031;43.416;23.232;2022-08-19T12:59:34;18.38;;;4.60;;
33696;SDS011;20031;43.416;23.232;2022-08-19T13:02:01;21.23;;;4.95;;
33696;SDS011;20031;43.416;23.232;2022-08-19T13:04:27;12.32;;;3.20;;
33696;SDS011;20031;43.416;23.232;2022-08-19T13:06:52;17.50;;;3.78;;
33696;SDS011;20031;43.416;23.232;2022-08-19T13:09:18;14.50;;;3.63;;
33696;SDS011;20031;43.416;23.232;2022-08-19T13:11:43;9.32;;;3.70;;
33696;SDS011;20031;43.416;23.232;2022-08-19T13:14:09;8.73;;;3.75;;
33696;SDS011;20031;43.416;23.232;2022-08-19T13:16:36;11.52;;;3.10;;
33696;SDS011;20031;43.416;23.232;2022-08-19T13:19:02;9.32;;;3.17;;
33696;SDS011;20031;43.416;23.232;2022-08-19T13:21:30;17.67;;;4.07;;
33696;SDS011;20031;43.416;23.232;2022-08-19T13:23:56;8.75;;;3.38;;
33696;SDS011;20031;43.416;23.232;2022-08-19T13:26:22;9.63;;;3.42;;
33696;SDS011;20031;43.416;23.232;2022-08-19T13:28:47;9.70;;;3.40;;
33696;SDS011;20031;43.416;23.232;2022-08-19T13:31:33;12.70;;;3.75;;
33696;SDS011;20031;43.416;23.232;2022-08-19T13:34:19;8.68;;;3.15;;
33696;SDS011;20031;43.416;23.232;2022-08-19T13:36:52;10.88;;;3.30;;
33696;SDS011;20031;43.416;23.232;2022-08-19T13:39:18;9.10;;;2.83;;
33696;SDS011;20031;43.416;23.232;2022-08-19T13:41:46;11.90;;;3.60;;
33696;SDS011;20031;43.416;23.232;2022-08-19T13:44:13;14.95;;;3.42;;
33696;SDS011;20031;43.416;23.232;2022-08-19T13:46:40;12.30;;;3.42;;
33696;SDS011;20031;43.416;23.232;2022-08-19T13:49:09;13.93;;;3.33;;
33696;SDS011;20031;43.416;23.232;2022-08-19T13:51:34;13.50;;;3.53;;
33696;SDS011;20031;43.416;23.232;2022-08-19T13:54:00;8.80;;;3.80;;
33696;SDS011;20031;43.416;23.232;2022-08-19T13:56:25;16.48;;;4.28;;
33696;SDS011;20031;43.416;23.232;2022-08-19T13:58:51;12.52;;;4.07;;
33696;SDS011;20031;43.416;23.232;2022-08-19T14:01:20;12.02;;;4.20;;
33696;SDS011;20031;43.416;23.232;2022-08-19T14:03:47;8.70;;;4.10;;
33696;SDS011;20031;43.416;23.232;2022-08-19T14:06:12;15.85;;;4.53;;
33696;SDS011;20031;43.416;23.232;2022-08-19T14:08:38;14.27;;;3.97;;
33696;SDS011;20031;43.416;23.232;2022-08-19T14:11:06;17.55;;;4.20;;
33696;SDS011;20031;43.416;23.232;2022-08-19T14:13:33;9.30;;;3.88;;
33696;SDS011;20031;43.416;23.232;2022-08-19T14:16:01;11.48;;;4.18;;
33696;SDS011;20031;43.416;23.232;2022-08-19T14:18:32;11.30;;;4.45;;
33696;SDS011;20031;43.416;23.232;2022-08-19T14:20:57;10.82;;;4.05;;
33696;SDS011;20031;43.416;23.232;2022-08-19T14:23:23;11.48;;;4.30;;
33696;SDS011;20031;43.416;23.232;2022-08-19T14:25:48;10.23;;;3.80;;
33696;SDS011;20031;43.416;23.232;2022-08-19T14:28:13;18.23;;;4.50;;
33696;SDS011;20031;43.416;23.232;2022-08-19T14:30:39;10.38;;;4.20;;
33696;SDS011;20031;43.416;23.232;2022-08-19T14:33:05;12.55;;;3.78;;
33696;SDS011;20031;43.416;23.232;2022-08-19T14:35:32;11.73;;;3.80;;
33696;SDS011;20031;43.416;23.232;2022-08-19T14:38:04;11.18;;;3.80;;
33696;SDS011;20031;43.416;23.232;2022-08-19T14:40:30;33.10;;;8.45;;
33696;SDS011;20031;43.416;23.232;2022-08-19T14:42:58;85.20;;;20.02;;
33696;SDS011;20031;43.416;23.232;2022-08-19T14:45:29;23.45;;;6.22;;
33696;SDS011;20031;43.416;23.232;2022-08-19T14:47:59;13.80;;;3.92;;